Flight Track Log - Related Links

Times and Time Zones

All times are in EDT time to prevent confusion due to time zone crossing. See the N771PA flight status page for this flight to view local times or setup timezone preferences in your user account.

Time Position Orientation Groundspeed Altitude Reporting Facility
EDT Latitude Longitude Course Direction KTS MPH feet Rate Location/Type
Sat 01:37:15 PM 37.0856 -100.8731 78° East 144 166 6,100  Level Kansas City Center
Sat 01:38:16 PM 37.0942 -100.8222 78° East 151 174 7,400 1,317 Climbing Kansas City Center
Sat 01:39:18 PM 37.1056 -100.7739 74° East 152 175 8,800 1,317 Climbing Kansas City Center
Sat 01:40:19 PM 37.1189 -100.7136 74° East 159 183 10,100 1,317 Climbing Kansas City Center
Sat 01:41:21 PM 37.1261 -100.6592 81° East 164 189 11,500 1,171 Climbing Kansas City Center
Sat 01:42:22 PM 37.1361 -100.5969 79° East 164 189 12,500 1,131 Climbing Kansas City Center
Sat 01:43:23 PM 37.1450 -100.5389 79° East 173 199 13,800 1,171 Climbing Kansas City Center
Sat 01:44:25 PM 37.1544 -100.4819 78° East 175 201 14,900 976 Climbing Kansas City Center
Sat 01:45:26 PM 37.1669 -100.4111 77° East 183 211 15,800 780 Climbing Kansas City Center
Sat 01:46:28 PM 37.1786 -100.3481 77° East 190 219 16,500 683 Climbing Kansas City Center
Sat 01:47:29 PM 37.1928 -100.2708 77° East 200 230 17,200 585 Climbing Kansas City Center
Sat 01:48:31 PM 37.2042 -100.2028 78° East 205 236 17,700 683 Climbing Kansas City Center
Sat 01:49:32 PM 37.2206 -100.1222 76° East 212 244 18,600 634 Climbing Kansas City Center
Sat 01:50:34 PM 37.2331 -100.0508 78° East 215 247 19,000 195 Climbing Kansas City Center
Sat 01:51:35 PM 37.2453 -99.9706 79° East 233 268 19,000  Level Kansas City Center
Sat 01:52:37 PM 37.2639 -99.8692 77° East 260 299 19,000  Level Kansas City Center
Sat 01:53:38 PM 37.2783 -99.7806 78° East 268 308 19,000  Level Kansas City Center
Sat 01:54:40 PM 37.2961 -99.6758 78° East 273 314 19,000  Level Kansas City Center
Sat 01:55:41 PM 37.3125 -99.5872 77° East 273 314 19,000  Level Kansas City Center
Sat 01:56:42 PM 37.3300 -99.4831 78° East 274 315 19,000  Level Kansas City Center
Sat 01:57:44 PM 37.3461 -99.3925 77° East 279 321 19,000  Level Kansas City Center
Sat 01:58:45 PM 37.3614 -99.2986 78° East 275 316 19,000  Level Kansas City Center
Sat 01:59:47 PM 37.3789 -99.2056 77° East 275 316 19,000  Level Kansas City Center
Sat 02:00:48 PM 37.3919 -99.1111 80° East 273 314 19,000  Level Kansas City Center
Sat 02:01:50 PM 37.4053 -99.0172 80° East 273 314 19,000  Level Kansas City Center
Sat 02:02:51 PM 37.4219 -98.9247 77° East 273 314 19,000  Level Kansas City Center
Sat 02:03:53 PM 37.4347 -98.8314 80° East 271 312 19,000  Level Kansas City Center
Sat 02:04:54 PM 37.4517 -98.7192 79° East 272 313 19,000 -49 Level Kansas City Center
Sat 02:05:56 PM 37.4681 -98.6264 77° East 272 313 18,900 -429 Descending Kansas City Center
Sat 02:06:18 PM 37.4714 -98.5919 83° East 274 315 18,400 -1,475 Descending Kansas City Center
Sat 02:06:57 PM 37.4828 -98.5267 78° East 283 326 17,400 -1,546 Descending Kansas City Center
Sat 02:07:55 PM 37.5003 -98.4194 78° East 321 369 15,900 -1,452 Descending Kansas City Center
Sat 02:07:59 PM 37.5000 -98.4178 102° East 308 354 15,900 -1,015 Level Kansas City Center
Sat 02:09:00 PM 37.5175 -98.3142 78° East 307 353 14,800 -1,232 Descending Kansas City Center
Sat 02:09:51 PM 37.5283 -98.2206 82° East 296 341 13,600 -1,258 Descending Kansas City Center
Sat 02:10:02 PM 37.5308 -98.2125 69° East 299 344 13,500 -1,364 Descending Kansas City Center
Sat 02:10:57 PM 37.5475 -98.1097 78° East 284 327 12,100 -1,279 Descending Kansas City Center
Sat 02:11:03 PM 37.5467 -98.1156 260° West 288 331 12,200 -1,254 Climbing Kansas City Center
Sat 02:12:04 PM 37.5614 -98.0075 80° East 273 314 10,700 -1,452 Descending Kansas City Center
Sat 02:12:05 PM 37.5636 -98.0014 65° Northeast 282 325 10,700 -1,333 Level Kansas City Center
Sat 02:12:58 PM 37.5742 -97.9211 81° East 265 305 9,500 -1,279 Descending Kansas City Center
Sat 02:13:06 PM 37.5783 -97.9108 63° Northeast 275 316 9,400 -1,527 Descending Kansas City Center
Sat 02:13:53 PM 37.5875 -97.8400 81° East 257 296 8,100 -1,452 Descending Kansas City Center
Sat 02:14:08 PM 37.5919 -97.8239 71° East 265 305 7,900 -1,184 Descending Kansas City Center
Sat 02:15:09 PM 37.6017 -97.7414 82° East 252 290 6,600 -1,366 Descending Kansas City Center
Sat 02:16:11 PM 37.6022 -97.6611 89° East 239 275 5,100 -1,585 Descending Kansas City Center
Sat 02:16:55 PM 37.6019 -97.5947 90° East 228 262 3,800 -1,475 Descending Kansas City Center
Sat 02:17:12 PM 37.6019 -97.5822 90° East 232 267 3,600 -818 Descending Kansas City Center
Sat 02:18:01 PM 37.6050 -97.5153 87° East 212 244 2,900 -774 Descending Kansas City Center
Sat 02:18:14 PM 37.6058 -97.5069 83° East 224 258 2,800 -537 Descending Kansas City Center
Sat 02:19:08 PM 37.6131 -97.4478 81° East 143 165 2,300 -689 Descending Kansas City Center
Sat 02:19:15 PM 37.6164 -97.4417 55° Northeast 178 205 2,100 -618 Descending Kansas City Center
Sat 02:20:16 PM 37.6436 -97.4233 28° Northeast 156 180 1,600 -492 Descending Kansas City Center
Sat 02:22:00 PM 37.6499 -97.4331 309° West  Level Estimated
Sat 02:29:00 PM 37.6499 -97.4331 38° Northeast  Level Estimated
Sat 02:30:00 PM 37.6499 -97.4331 38° Northeast  Level Estimated
Sat 02:31:00 PM 37.6499 -97.4331 38° Northeast  Level Estimated

Login

Don't have an account? Register now (free) for customized features, flight alerts, and more!